RJNY  Shizuhama  Airport

Japan

Add Bookmark
ICAO RJNY
Type Airport
Status Operational
Latitude
34° 48' 46" N
34.812801
Longitude
138° 17' 52" E
138.298004
Local (DST + 9) UTC (GMT + 9)
Feb 7, 2016 05:21 Feb 7, 2016 08:21
Sunrise-Sunset Local UTC
Begin Civil Twilight 06:13 21:13
Sunrise 06:39 21:39
Sunset 05:22 08:22
End Civil Twilight 05:48 08:48
VFR
VFR
MVFR
MVFR
IFR
IFR
LIFR
LIFR
Unknown
Unavailable

Current Weather

METAR Observed VFR
RJNY 070720Z 25011KT 240V300 9999 FEW025 10/M11 Q1014 Sun, Feb 7, 2016 @ 07:20 UTC
(1 Hour, 1 Minute ago)
Visual Flight Rules
Wind Visibility Clouds Conditions
250° at 11 knots (20 kph) 10 km or more
  • Few at 2,500 ft AGL
  • No significant weather
Temperatures Readings Precipitation
Current Temp
10°C
50°F
Dewpoint
-11°C
12°F
Humidity 22%
Altimeter 29.94" Hg
Sea Level Pressure 1,014 mb
Field Elevation
10 m
33 ft
None Recorded

Additional weather within a 92.6km radius of RJNY

Map ICAO Location
rjns 10.2km W (259°)
VFR
VFR
MVFR
MVFR
IFR
IFR
LIFR
LIFR
Unknown
Unavailable
-
-

CheckWX.com is intended as a tool to help pilots better visualize weather data. It is not intended as a substitute for an official weather briefing obtained from a Flight Service Station. CheckWX.com does not meet the FAA requirements for an official pre-flight weather briefing. Therefore, it's important that pilots still call and obtain an official FSS pre-flight weather briefing.

© 2007-2016 CheckWX.com
08:21:26 UTC